Aviation Digital Data Service (ADDS)

Output produced by METARs form (1329 UTC 29 July 2015)
found at http://aviationweather.gov/adds/metars/
 
KROA 291137Z 2912/3012 VRB03KT P6SM OVC010 
     FM291400 14004KT P6SM SCT025 SCT250 
     FM291600 17005KT P6SM SCT035 SCT250 
     FM291900 17005KT P6SM VCTS BKN045CB BKN250 
     FM300000 VRB03KT P6SM VCSH BKN050 BKN250 
     FM300600 VRB03KT P6SM SCT100 BKN250